Latest Weather Observations for Coles Point

IDS60801

Issued at 7:02 am CDT Wednesday 28 January 2015 (issued every 30 minutes, with the page automatically refreshed every 10 minutes)

About weather observations | Map of weather stations | Latest weather observations for SA | Other Formats
Station Details ID: 018191 Name: COLES POINT Lat: -34.37 Lon: 135.37 Height: 28.0 m
Data from the previous 72 hours. | See also: Recent months at Coles Point
Date/Time
CDT
Temp
°C
App
Temp
°C
Dew
Point
Rel
Hum
%
Delta-T
°C
Wind Press
QNH
hPa
Press
MSL
hPa
Rain
since 9 am
mm
Dir
 
Spd
km/h
Gust
km/h
Spd
kts
Gust
kts
28/07:00am 15.3 12.4 8.3 63 3.5 SSE 13 20 7 11 1017.7 1017.7 0.0
28/06:30am 15.2 12.6 7.7 61 3.7 SE 11 17 6 9 1017.6 1017.6 0.0
28/06:00am 15.7 12.8 8.0 60 3.9 SSE 13 19 7 10 1017.4 1017.4 0.0
28/05:30am 15.9 12.9 7.9 59 4.0 SSE 13 17 7 9 1017.2 1017.1 0.0
28/05:00am 16.2 13.2 7.9 58 4.2 SE 13 19 7 10 1017.3 1017.3 0.0
28/04:30am 16.4 12.2 8.1 58 4.2 ESE 20 30 11 16 1017.4 1017.4 0.0
28/04:00am 16.5 13.4 8.7 60 4.0 SE 15 20 8 11 1017.3 1017.3 0.0
28/03:30am 16.4 12.3 8.6 60 4.0 ESE 20 28 11 15 1017.5 1017.5 0.0
28/03:00am 16.4 12.6 8.9 61 3.9 SE 19 28 10 15 1017.6 1017.6 0.0
28/02:30am 16.1 11.9 8.1 59 4.0 SE 20 33 11 18 1017.7 1017.7 0.0
28/02:00am 16.4 11.6 8.9 61 3.9 SE 24 33 13 18 1017.9 1017.9 0.0
28/01:30am 16.5 11.4 9.2 62 3.8 SE 26 33 14 18 1018.1 1018.1 0.0
28/01:00am 16.5 11.7 8.7 60 4.0 SE 24 33 13 18 1018.5 1018.4 0.0
28/12:30am 16.4 11.7 9.3 63 3.7 SE 24 33 13 18 1018.8 1018.7 0.0
28/12:00am 14.8 11.5 9.6 71 2.7 SE 17 24 9 13 1019.0 1018.9 0.0
 
Date/Time
CDT
Temp
°C
App
Temp
°C
Dew
Point
Rel
Hum
%
Delta-T
°C
Wind Press
QNH
hPa
Press
MSL
hPa
Rain
since 9 am
mm
Dir
 
Spd
km/h
Gust
km/h
Spd
kts
Gust
kts
27/11:30pm 15.0 11.6 9.1 68 3.0 SE 17 22 9 12 1019.4 1019.3 0.0
27/11:00pm 14.9 12.3 9.3 69 2.9 SE 13 17 7 9 1019.4 1019.3 0.0
27/10:30pm 15.4 12.5 9.5 68 3.0 SSE 15 20 8 11 1019.4 1019.3 0.0
27/10:00pm 15.7 12.0 9.4 66 3.3 SSE 19 24 10 13 1019.4 1019.3 0.0
27/09:30pm 16.1 12.2 9.3 64 3.5 SE 20 30 11 16 1019.2 1019.1 0.0
27/09:00pm 16.6 11.5 9.1 61 3.9 SSE 26 33 14 18 1019.2 1019.1 0.0
27/08:30pm 17.3 12.8 8.7 57 4.4 SSE 22 32 12 17 1019.0 1018.9 0.0
27/08:00pm 18.1 12.8 8.4 53 5.0 SSE 26 33 14 18 1018.7 1018.6 0.0
27/07:30pm 18.8 13.2 8.7 52 5.2 SSE 28 35 15 19 1018.0 1018.0 0.0
27/07:00pm 20.1 14.7 8.1 46 6.2 SSE 26 37 14 20 1017.7 1017.7 0.0
27/06:30pm 20.7 14.5 8.0 44 6.6 SSE 30 41 16 22 1017.4 1017.4 0.0
27/06:00pm 20.5 13.8 9.7 50 5.8 S 35 52 19 28 1017.3 1017.3 0.0
27/05:30pm 21.1 13.6 9.4 47 6.2 S 39 48 21 26 1017.1 1017.0 0.0
27/05:00pm 20.2 12.3 9.5 50 5.7 S 41 54 22 29 1016.9 1016.8 0.0
27/04:30pm 21.0 13.4 8.9 46 6.4 S 39 54 21 29 1016.9 1016.8 0.0
27/04:00pm 21.7 13.9 8.2 42 7.1 S 39 50 21 27 1017.1 1017.0 0.0
27/03:30pm 21.4 13.2 8.0 42 7.0 SSW 41 54 22 29 1017.1 1017.0 0.0
27/03:00pm 21.1 13.7 8.4 44 6.7 SSW 37 46 20 25 1017.2 1017.1 0.0
27/02:30pm 21.2 14.0 7.8 42 6.9 SSW 35 54 19 29 1017.6 1017.6 0.0
27/02:00pm 22.1 15.3 7.5 39 7.6 SSW 33 48 18 26 1017.8 1017.8 0.0
27/01:30pm 22.4 16.2 7.8 39 7.6 S 30 43 16 23 1017.9 1017.9 0.0
27/01:00pm 21.7 15.8 7.5 40 7.4 S 28 44 15 24 1018.2 1018.2 0.0
27/12:30pm 22.0 17.8 5.8 35 8.1 SE 17 30 9 16 1018.6 1018.5 0.0
27/12:00pm 20.9 16.2 5.3 36 7.7 SSE 19 33 10 18 1018.8 1018.7 0.0
27/11:30am 20.5 15.6 5.3 37 7.5 SE 20 30 11 16 1018.9 1018.8 0.0
27/11:00am 19.8 15.3 6.2 41 6.8 SE 19 28 10 15 1019.3 1019.2 0.0
27/10:30am 18.9 13.8 6.1 43 6.3 SE 22 32 12 17 1019.3 1019.2 0.0
27/10:00am 18.8 14.2 6.6 45 6.1 SE 20 41 11 22 1019.3 1019.2 0.0
27/09:30am 18.2 13.2 6.4 46 5.8 SSE 22 30 12 16 1019.6 1019.5 0.0
27/09:00am 17.5 12.8 6.1 47 5.6 SE 20 28 11 15 1019.6 1019.5 0.0
27/08:30am 17.0 11.9 5.9 48 5.4 ESE 22 26 12 14 1019.6 1019.5 0.0
27/08:00am 16.2 12.1 6.3 52 4.8 SE 17 24 9 13 1019.5 1019.4 0.0
27/07:30am 13.8 11.4 7.1 64 3.3 SE 9 13 5 7 1019.2 1019.1 0.0
27/07:00am 11.3 8.4 6.4 72 2.3 SE 11 13 6 7 1018.8 1018.7 0.0
27/06:30am 10.5 8.0 6.5 76 1.9 SE 9 11 5 6 1018.7 1018.6 0.0
27/06:00am 10.5 8.0 6.6 77 1.8 SE 9 9 5 5 1018.2 1018.2 0.0
27/05:30am 11.0 8.5 6.7 75 2.0 SSE 9 11 5 6 1017.8 1017.8 0.0
27/05:00am 11.4 9.0 6.9 74 2.1 SE 9 9 5 5 1017.8 1017.8 0.0
27/04:30am 11.7 9.3 7.0 73 2.2 SE 9 11 5 6 1017.7 1017.7 0.0
27/04:00am 12.1 9.7 7.2 72 2.4 ESE 9 13 5 7 1017.9 1017.9 0.0
27/03:30am 11.8 9.8 6.9 72 2.3 SE 7 9 4 5 1017.9 1017.9 0.0
27/03:00am 11.7 9.3 7.0 73 2.2 SE 9 11 5 6 1018.1 1018.1 0.0
27/02:30am 12.5 9.9 7.8 73 2.3 SE 11 13 6 7 1018.5 1018.4 0.0
27/02:00am 13.0 10.5 8.1 72 2.4 SE 11 15 6 8 1018.8 1018.7 0.0
27/01:30am 12.2 10.0 7.7 74 2.2 SE 9 11 5 6 1018.9 1018.8 0.0
27/01:00am 12.2 9.6 7.7 74 2.2 SE 11 13 6 7 1019.2 1019.1 0.0
27/12:30am 12.7 10.5 8.0 73 2.3 SE 9 11 5 6 1019.5 1019.4 0.0
27/12:00am 12.5 10.6 7.6 72 2.4 SSE 7 9 4 5 1019.6 1019.5 0.0
 
Date/Time
CDT
Temp
°C
App
Temp
°C
Dew
Point
Rel
Hum
%
Delta-T
°C
Wind Press
QNH
hPa
Press
MSL
hPa
Rain
since 9 am
mm
Dir
 
Spd
km/h
Gust
km/h
Spd
kts
Gust
kts
26/11:30pm 12.0 11.1 6.1 67 2.8 CALM 0 0 0 0 1019.6 1019.5 0.0
26/11:00pm 13.6 12.2 7.4 66 3.0 SSE 4 6 2 3 1019.6 1019.5 0.0
26/10:30pm 14.4 11.7 7.5 63 3.4 SSE 11 13 6 7 1019.6 1019.5 0.0
26/10:00pm 15.0 11.6 7.5 61 3.7 SSE 15 19 8 10 1019.6 1019.5 0.0
26/09:30pm 15.3 12.3 7.8 61 3.7 SSE 13 20 7 11 1019.5 1019.4 0.0
26/09:00pm 16.0 11.4 8.0 59 4.0 SSE 22 28 12 15 1019.2 1019.1 0.0
26/08:30pm 16.6 11.5 7.8 56 4.4 SSE 24 33 13 18 1019.0 1018.9 0.0
26/08:00pm 17.4 12.0 8.0 54 4.8 S 26 35 14 19 1018.7 1018.6 0.0
26/07:30pm 18.0 11.8 8.0 52 5.1 S 30 41 16 22 1018.5 1018.4 0.0
26/07:00pm 18.8 13.1 8.5 51 5.3 S 28 37 15 20 1018.1 1018.1 0.0
26/06:30pm 19.2 13.4 7.9 48 5.8 S 28 39 15 21 1017.9 1017.9 0.0
26/06:00pm 19.6 13.2 7.0 44 6.4 SSW 30 41 16 22 1018.1 1018.1 0.0
26/05:30pm 19.9 13.6 7.6 45 6.3 SSW 30 43 16 23 1018.1 1018.1 0.0
26/05:00pm 20.1 13.3 7.1 43 6.6 SSW 32 41 17 22 1018.4 1018.3 0.0
26/04:30pm 20.0 13.5 6.4 41 6.8 SSW 30 37 16 20 1018.4 1018.3 0.0
26/04:00pm 20.4 13.9 6.4 40 7.0 SSW 30 41 16 22 1018.4 1018.3 0.0
26/03:30pm 21.0 14.0 6.2 38 7.4 SSW 32 43 17 23 1018.4 1018.3 0.0
26/03:00pm 21.3 14.6 7.2 40 7.2 SSW 32 43 17 23 1018.4 1018.3 0.0
26/02:30pm 21.7 15.1 7.9 41 7.2 SSW 32 43 17 23 1018.2 1018.2 0.0
26/02:00pm 21.5 14.9 7.7 41 7.2 SSW 32 43 17 23 1018.4 1018.3 0.0
26/01:30pm 20.6 14.3 7.2 42 6.8 SSW 30 39 16 21 1018.6 1018.5 0.0
26/01:00pm 20.4 14.0 7.1 42 6.8 SSW 30 35 16 19 1018.7 1018.6 0.0
26/12:30pm 19.8 14.3 7.5 45 6.3 SSW 26 35 14 19 1018.7 1018.6 0.0
26/12:00pm 19.6 13.7 7.7 46 6.1 SSW 28 35 15 19 1018.9 1018.8 0.0
26/11:30am 19.2 14.6 8.2 49 5.7 SSW 22 30 12 16 1019.0 1018.9 0.0
26/11:00am 17.9 13.8 10.0 60 4.2 SSW 22 28 12 15 1019.2 1019.1 0.0
26/10:30am 17.8 14.1 10.2 61 4.0 SW 20 24 11 13 1019.1 1019.0 0.0
26/10:00am 18.6 14.3 8.0 50 5.4 S 20 28 11 15 1019.2 1019.1 0.0
26/09:30am 18.6 14.5 7.7 49 5.5 S 19 28 10 15 1019.3 1019.2 0.0
26/09:00am 17.9 14.8 8.7 55 4.7 S 15 20 8 11 1019.4 1019.3 0.0
26/08:30am 16.6 14.0 9.5 63 3.7 S 13 19 7 10 1019.2 1019.1 0.0
26/08:00am 16.1 14.1 10.0 67 3.2 SSW 11 15 6 8 1018.9 1018.8 0.0
26/07:30am 15.4 14.1 10.0 70 2.8 SSW 7 9 4 5 1018.5 1018.4 0.0
26/07:00am 14.7 13.4 10.1 74 2.4 SSW 7 9 4 5 1018.6 1018.5 0.0
26/06:30am 14.7 13.4 10.1 74 2.4 SSW 7 9 4 5 1018.4 1018.3 0.0
26/06:00am 14.9 13.1 9.3 69 2.9 S 9 11 5 6 1018.2 1018.2 0.0
26/05:30am 15.2 13.5 8.4 64 3.4 SE 7 11 4 6 1018.0 1018.0 0.0
26/05:00am 14.7 13.4 7.7 63 3.5 E 4 6 2 3 1017.7 1017.7 0.0
26/04:30am 14.1 13.5 7.6 65 3.2 CALM 0 0 0 0 1017.6 1017.6 0.0
26/04:00am 12.7 11.9 6.7 67 2.9 CALM 0 0 0 0 1017.4 1017.4 0.0
26/03:30am 12.6 11.8 6.4 66 2.9 CALM 0 0 0 0 1017.3 1017.3 0.0
26/03:00am 14.4 12.4 7.0 61 3.6 SE 7 7 4 4 1017.2 1017.1 0.0
26/02:30am 14.8 13.4 7.4 61 3.6 SE 4 7 2 4 1017.4 1017.4 0.0
26/02:00am 15.2 13.3 7.5 60 3.8 ESE 7 9 4 5 1017.5 1017.5 0.0
26/01:30am 15.5 13.6 7.5 59 4.0 SE 7 9 4 5 1017.6 1017.6 0.0
26/01:00am 15.5 13.7 7.8 60 3.9 ESE 7 13 4 7 1017.7 1017.7 0.0
26/12:30am 14.1 12.1 6.9 62 3.5 SE 7 9 4 5 1017.9 1017.9 0.0
26/12:00am 14.3 11.8 6.4 59 3.8 SSE 9 13 5 7 1018.1 1018.1 0.0
 
Date/Time
CDT
Temp
°C
App
Temp
°C
Dew
Point
Rel
Hum
%
Delta-T
°C
Wind Press
QNH
hPa
Press
MSL
hPa
Rain
since 9 am
mm
Dir
 
Spd
km/h
Gust
km/h
Spd
kts
Gust
kts
25/11:30pm 14.4 12.3 6.5 59 3.8 S 7 9 4 5 1018.2 1018.2 0.0
25/11:00pm 15.7 12.2 7.0 56 4.3 S 15 20 8 11 1018.5 1018.4 0.0
25/10:30pm 15.5 11.5 6.5 55 4.4 S 17 24 9 13 1018.5 1018.4 0.0
25/10:00pm 15.7 11.3 6.4 54 4.5 S 19 28 10 15 1018.0 1018.0 0.0
25/09:30pm 16.6 11.5 7.5 55 4.6 S 24 35 13 19 1017.4 1017.4 0.0
25/09:00pm 16.0 11.4 6.7 54 4.6 S 20 28 11 15 1017.2 1017.1 0.0
25/08:30pm 16.6 10.7 5.9 49 5.2 SSW 26 33 14 18 1017.0 1016.9 0.0
25/08:00pm 17.3 12.1 5.3 45 5.8 S 22 32 12 17 1016.8 1016.7 0.0
25/07:30pm 17.5 11.6 5.8 46 5.7 SSW 26 33 14 18 1016.6 1016.5 0.0
25/07:00pm 17.8 12.1 6.7 48 5.5 SSW 26 35 14 19 1016.4 1016.3 0.0
25/06:30pm 19.6 14.1 6.0 41 6.7 SSW 24 33 13 18 1016.3 1016.2 0.0
25/06:00pm 18.8 13.3 6.0 43 6.3 SSW 24 32 13 17 1016.3 1016.2 0.0
25/05:30pm 19.6 13.8 6.4 42 6.6 SSW 26 35 14 19 1016.3 1016.2 0.0
25/05:00pm 20.3 14.1 6.3 40 7.0 SSW 28 33 15 18 1016.1 1016.0 0.0
25/04:30pm 19.8 14.0 6.2 41 6.8 SSW 26 37 14 20 1016.1 1016.0 0.0
25/04:00pm 20.4 14.5 7.4 43 6.7 SSW 28 39 15 21 1016.1 1016.0 0.0
25/03:30pm 19.7 13.6 8.1 47 6.0 SSW 30 37 16 20 1016.1 1016.0 0.0
25/03:00pm 19.3 13.4 7.7 47 5.9 SSW 28 35 15 19 1016.2 1016.1 0.0
25/02:30pm 20.5 15.3 7.2 42 6.8 SSW 24 32 13 17 1016.2 1016.1 0.0
25/02:00pm 19.6 13.4 6.0 41 6.8 SSW 28 35 15 19 1016.1 1016.0 0.0
25/01:30pm 19.8 14.1 4.7 37 7.3 SSW 24 30 13 16 1016.2 1016.1 0.0
25/01:00pm 19.2 13.4 6.3 43 6.4 SW 26 32 14 17 1016.6 1016.5 0.0
25/12:30pm 18.4 13.3 7.8 50 5.4 SW 24 28 13 15 1016.8 1016.7 0.0
25/12:00pm 18.2 13.6 6.7 47 5.7 SSW 20 28 11 15 1016.8 1016.7 0.0
25/11:30am 18.0 13.1 5.2 43 6.2 SW 20 24 11 13 1016.7 1016.6 0.0
25/11:00am 18.6 12.7 5.8 43 6.3 SW 26 33 14 18 1016.4 1016.3 0.0
25/10:30am 17.5 12.4 6.1 47 5.6 SW 22 28 12 15 1016.5 1016.4 0.0
25/10:00am 17.4 13.6 7.5 52 5.0 SW 17 20 9 11 1016.5 1016.4 0.0
25/09:30am 16.9 13.2 6.4 50 5.1 SW 15 20 8 11 1016.3 1016.2 0.0
25/09:00am 17.3 12.6 5.3 45 5.8 SSW 19 26 10 14 1015.9 1015.8 0.4
25/08:30am 16.4 11.8 5.7 49 5.2 SSW 19 24 10 13 1015.4 1015.3 0.4
25/08:00am 16.1 12.8 6.5 53 4.7 SSW 13 20 7 11 1014.8 1014.7 0.4
25/07:30am 15.7 12.5 7.0 56 4.3 SW 13 17 7 9 1014.3 1014.2 0.4

Other Formats:

Comma delimited format used in spreadsheet applications
http://www.bom.gov.au/fwo/IDS60801/IDS60801.94658.axf

JavaScript Object Notation format (JSON) in row-major order
http://www.bom.gov.au/fwo/IDS60801/IDS60801.94658.json